Denise Foss — WD17810 — position and weather

sailwx.info

Track history (hours):
 
Tides and Currents Weather Stations Pressure Air Temp Water Temp Dewpoint Dewpoint Depression Visibility Wind Speed Wind Dir Waves Ship Positions

Denise Foss

Last reported at 2018-Jun-18 17:00 UTC. Time now 2018-Jun-18 17:26 UTC.
Position N 48°21' W 124°28'.

Length 36 m; draft 5.5 m.

Type: Tug. MMSI: 367732430.

Date/timePositionNaut miles runAvg speedWind from/ knotsBaromVisibWave heightAir tempDewpointWater temp
2018-Jun-18 17:00N 48°21' W 124°28'2 3.1
2018-Jun-18 16:30N 48°21' W 124°30'2 3.4
2018-Jun-18 16:00N 48°22' W 124°32'2 4.0
2018-Jun-18 15:30N 48°23' W 124°35'1 2.5
2018-Jun-18 14:58N 48°22' W 124°37'0 0.0
2018-Jun-18 14:28N 48°22' W 124°37'0 0.0
2018-Jun-18 13:58N 48°22' W 124°37'0 0.0
2018-Jun-18 13:28N 48°22' W 124°37'0 0.0
2018-Jun-18 12:58N 48°22' W 124°37'0 0.0
2018-Jun-18 12:28N 48°22' W 124°37'0 0.0
2018-Jun-18 11:58N 48°22' W 124°37'0 0.0
2018-Jun-18 11:25N 48°22' W 124°37'0 0.0
2018-Jun-18 10:58N 48°22' W 124°37'0 0.0
2018-Jun-18 10:28N 48°22' W 124°37'0 0.0
2018-Jun-18 09:58N 48°22' W 124°37'0 0.0
2018-Jun-18 09:28N 48°22' W 124°37'0 0.0
2018-Jun-18 08:58N 48°22' W 124°37'0 0.0
2018-Jun-18 08:28N 48°22' W 124°37'0 0.0
2018-Jun-18 07:58N 48°22' W 124°37'0 0.0
2018-Jun-18 07:28N 48°22' W 124°37'0 0.0
2018-Jun-18 06:58N 48°22' W 124°37'0 0.0
2018-Jun-18 06:19N 48°22' W 124°37'0 0.0
2018-Jun-18 05:58N 48°22' W 124°37'0 0.0
2018-Jun-18 05:28N 48°22' W 124°37'0 0.0
2018-Jun-18 04:58N 48°22' W 124°37'0 0.0
2018-Jun-18 04:28N 48°22' W 124°37'0 0.0
2018-Jun-18 03:58N 48°22' W 124°37'0 0.0
2018-Jun-18 03:28N 48°22' W 124°37'0 0.0
2018-Jun-18 02:58N 48°22' W 124°37'0 0.0
2018-Jun-18 02:28N 48°22' W 124°37'0 0.0
2018-Jun-18 01:58N 48°22' W 124°37'0 0.0
2018-Jun-18 01:28N 48°22' W 124°37'0 0.0
2018-Jun-18 00:58N 48°22' W 124°37'0 0.0
2018-Jun-18 00:28N 48°22' W 124°37'0 0.0
2018-Jun-17 23:58N 48°22' W 124°37'0 0.0
2018-Jun-17 23:28N 48°22' W 124°37'0 0.0
2018-Jun-17 22:58N 48°22' W 124°37'0 0.0
2018-Jun-17 22:28N 48°22' W 124°37'0 0.0
2018-Jun-17 21:58N 48°22' W 124°37'0 0.0
2018-Jun-17 21:28N 48°22' W 124°37'0 0.0
2018-Jun-17 21:01N 48°22' W 124°37'3 5.9
2018-Jun-17 20:31N 48°22' W 124°32'0 0.2
2018-Jun-17 20:01N 48°22' W 124°32'3 6.7
2018-Jun-17 19:31N 48°21' W 124°28'4 6.8
2018-Jun-17 18:59N 48°19' W 124°23'0 0.4
2018-Jun-17 18:30N 48°19' W 124°23'1 1.7
2018-Jun-17 18:00N 48°19' W 124°24'1 2.0
2018-Jun-17 17:30N 48°20' W 124°26'1 2.1
2018-Jun-17 17:00N 48°20' W 124°27'1 2.1
2018-Jun-17 16:30N 48°21' W 124°28'1 2.2
2018-Jun-17 16:00N 48°21' W 124°30'1 2.3
2018-Jun-17 15:28N 48°22' W 124°32'1 2.4
2018-Jun-17 14:59N 48°22' W 124°33'2 3.9
2018-Jun-17 14:31N 48°22' W 124°36'1 1.4
2018-Jun-17 13:59N 48°22' W 124°37'0 0.0
2018-Jun-17 13:28N 48°22' W 124°37'0 0.0
2018-Jun-17 12:59N 48°22' W 124°37'0 0.0
2018-Jun-17 12:29N 48°22' W 124°37'0 0.0
2018-Jun-17 11:59N 48°22' W 124°37'0 0.0
2018-Jun-17 11:29N 48°22' W 124°37'0 0.0
2018-Jun-17 10:59N 48°22' W 124°37'0 0.0
2018-Jun-17 10:29N 48°22' W 124°37'0 0.0
2018-Jun-17 09:59N 48°22' W 124°37'0 0.0
2018-Jun-17 09:29N 48°22' W 124°37'0 0.0
2018-Jun-17 08:59N 48°22' W 124°37'0 0.0
2018-Jun-17 08:29N 48°22' W 124°37'0 0.0
2018-Jun-17 07:59N 48°22' W 124°37'0 0.0
2018-Jun-17 07:29N 48°22' W 124°37'0 0.0
2018-Jun-17 06:59N 48°22' W 124°37'0 0.0
2018-Jun-17 06:29N 48°22' W 124°37'0 0.0
2018-Jun-17 05:59N 48°22' W 124°37'0 0.0
2018-Jun-17 05:29N 48°22' W 124°37'0 0.0
2018-Jun-17 04:59N 48°22' W 124°37'0 0.0
2018-Jun-17 04:29N 48°22' W 124°37'0 0.0
2018-Jun-17 03:59N 48°22' W 124°37'0 0.0
2018-Jun-17 03:28N 48°22' W 124°37'0 0.0
2018-Jun-17 02:59N 48°22' W 124°37'0 0.0
2018-Jun-17 02:28N 48°22' W 124°37'0 0.0
2018-Jun-17 01:58N 48°22' W 124°37'0 0.0
2018-Jun-17 01:28N 48°22' W 124°37'0 0.0
2018-Jun-17 00:59N 48°22' W 124°37'0 0.0
2018-Jun-17 00:28N 48°22' W 124°37'0 0.0
2018-Jun-16 23:58N 48°22' W 124°37'0 0.0
2018-Jun-16 23:29N 48°22' W 124°37'0 0.0
2018-Jun-16 22:58N 48°22' W 124°37'0 0.0
2018-Jun-16 22:28N 48°22' W 124°37'0 0.0
2018-Jun-16 21:58N 48°22' W 124°37'0 0.0
2018-Jun-16 21:29N 48°22' W 124°37'0 0.0
2018-Jun-16 20:59N 48°22' W 124°37'0 0.0
2018-Jun-16 20:29N 48°22' W 124°37'2 3.8
2018-Jun-16 20:00N 48°23' W 124°34'510.8
2018-Jun-16 19:30N 48°20' W 124°27'1 1.8
2018-Jun-16 19:00N 48°21' W 124°28'1 2.1
2018-Jun-16 18:30N 48°21' W 124°29'1 2.1
2018-Jun-16 18:00N 48°22' W 124°31'1 2.0
2018-Jun-16 17:30N 48°23' W 124°32'1 1.1
2018-Jun-16 17:00N 48°23' W 124°32'3 6.8
2018-Jun-16 16:30N 48°21' W 124°28'0 0.5
2018-Jun-16 16:00N 48°21' W 124°28'1 2.1
2018-Jun-16 15:30N 48°21' W 124°29'1 1.9
2018-Jun-16 14:59N 48°22' W 124°31'1 2.1
2018-Jun-16 14:29N 48°22' W 124°32'1 2.2
2018-Jun-16 14:00N 48°23' W 124°33'2 3.8
2018-Jun-16 13:30N 48°22' W 124°36'0 0.9
2018-Jun-16 13:00N 48°22' W 124°37'0 0.0
2018-Jun-16 12:30N 48°22' W 124°37'0 0.0
2018-Jun-16 12:00N 48°22' W 124°37'0 0.0
2018-Jun-16 11:30N 48°22' W 124°37'0 0.0
2018-Jun-16 11:00N 48°22' W 124°37'0 0.0
2018-Jun-16 10:30N 48°22' W 124°37'0 0.0
2018-Jun-16 10:00N 48°22' W 124°37'0 0.0
2018-Jun-16 09:30N 48°22' W 124°37'0 0.0
2018-Jun-16 09:00N 48°22' W 124°37'0 0.0
2018-Jun-16 08:30N 48°22' W 124°37'0 0.0
2018-Jun-16 08:00N 48°22' W 124°37'0 0.0
2018-Jun-16 07:30N 48°22' W 124°37'0 0.0
2018-Jun-16 07:00N 48°22' W 124°37'0 0.0
2018-Jun-16 06:30N 48°22' W 124°37'0 0.0
2018-Jun-16 06:00N 48°22' W 124°37'0 0.0
2018-Jun-16 05:30N 48°22' W 124°37'0 0.0
2018-Jun-16 05:00N 48°22' W 124°37'0 0.0
2018-Jun-16 04:30N 48°22' W 124°37'0 0.0
2018-Jun-16 04:00N 48°22' W 124°37'0 0.0
2018-Jun-16 03:30N 48°22' W 124°37'0 0.0
2018-Jun-16 03:00N 48°22' W 124°37'0 0.0
2018-Jun-16 02:30N 48°22' W 124°37'0 0.0
2018-Jun-16 02:00N 48°22' W 124°37'0 0.0
2018-Jun-16 01:30N 48°22' W 124°37'0 0.0
2018-Jun-16 01:00N 48°22' W 124°37'0 0.0
2018-Jun-16 00:30N 48°22' W 124°37'0 0.0
2018-Jun-16 00:00N 48°22' W 124°37'0 0.0
2018-Jun-15 23:30N 48°22' W 124°37'0 0.0
2018-Jun-15 23:00N 48°22' W 124°37'0 0.0
2018-Jun-15 22:30N 48°22' W 124°37'0 0.0
2018-Jun-15 22:00N 48°22' W 124°37'0 0.0
2018-Jun-15 21:30N 48°22' W 124°37'0 0.0
2018-Jun-15 21:00N 48°22' W 124°37'0 0.0
2018-Jun-15 20:30N 48°22' W 124°37'0 0.0
2018-Jun-15 20:00N 48°22' W 124°37'0 0.0
2018-Jun-15 19:31N 48°22' W 124°37'2 4.2
2018-Jun-15 19:00N 48°23' W 124°34'4 7.1
2018-Jun-15 18:30N 48°21' W 124°29'3 6.4
2018-Jun-15 17:59N 48°19' W 124°25'0 0.5
2018-Jun-15 17:30N 48°19' W 124°24'1 1.6
2018-Jun-15 17:00N 48°20' W 124°25'1 1.8
2018-Jun-15 16:31N 48°20' W 124°27'1 2.0
2018-Jun-15 16:01N 48°20' W 124°28'1 1.5
2018-Jun-15 15:31N 48°21' W 124°29'1 1.4
2018-Jun-15 14:59N 48°21' W 124°30'1 1.7
2018-Jun-15 14:29N 48°22' W 124°31'1 1.7
2018-Jun-15 13:59N 48°22' W 124°32'1 1.7
2018-Jun-15 13:30N 48°22' W 124°33'1 2.9
2018-Jun-15 13:01N 48°23' W 124°35'1 2.4
2018-Jun-15 12:28N 48°22' W 124°37'0 0.0
2018-Jun-15 11:58N 48°22' W 124°37'0 0.0
2018-Jun-15 11:29N 48°22' W 124°37'0 0.0
2018-Jun-15 10:59N 48°22' W 124°37'0 0.0
2018-Jun-15 10:28N 48°22' W 124°37'0 0.0
2018-Jun-15 09:58N 48°22' W 124°37'0 0.0
2018-Jun-15 09:28N 48°22' W 124°37'0 0.0
2018-Jun-15 08:58N 48°22' W 124°37'0 0.0
2018-Jun-15 08:28N 48°22' W 124°37'0 0.0
2018-Jun-15 07:58N 48°22' W 124°37'0 0.0
2018-Jun-15 07:28N 48°22' W 124°37'0 0.0
2018-Jun-15 06:58N 48°22' W 124°37'0 0.0
2018-Jun-15 06:25N 48°22' W 124°37'0 0.0
2018-Jun-15 05:58N 48°22' W 124°37'0 0.0
2018-Jun-15 05:28N 48°22' W 124°37'0 0.0
2018-Jun-15 04:58N 48°22' W 124°37'0 0.0
2018-Jun-15 04:28N 48°22' W 124°37'0 0.0
2018-Jun-15 03:59N 48°22' W 124°37'0 0.0
2018-Jun-15 03:28N 48°22' W 124°37'0 0.0
2018-Jun-15 02:58N 48°22' W 124°37'0 0.0
2018-Jun-15 02:28N 48°22' W 124°37'0 0.0
2018-Jun-15 01:58N 48°22' W 124°37'0 0.0
2018-Jun-15 01:28N 48°22' W 124°37'0 0.0
2018-Jun-15 00:58N 48°22' W 124°37'0 0.0
2018-Jun-15 00:28N 48°22' W 124°37'0 0.0
2018-Jun-14 23:58N 48°22' W 124°37'0 0.0
2018-Jun-14 23:28N 48°22' W 124°37'0 0.0
2018-Jun-14 22:58N 48°22' W 124°37'0 0.0
2018-Jun-14 22:28N 48°22' W 124°37'0 0.0
2018-Jun-14 21:58N 48°22' W 124°37'0 0.0
2018-Jun-14 21:28N 48°22' W 124°37'0 0.0
2018-Jun-14 20:58N 48°22' W 124°37'0 0.0
2018-Jun-14 20:28N 48°22' W 124°37'0 0.0
2018-Jun-14 19:58N 48°22' W 124°37'0 0.0
2018-Jun-14 19:28N 48°22' W 124°37'0 0.0
2018-Jun-14 18:58N 48°22' W 124°37'1 1.3
2018-Jun-14 18:30N 48°22' W 124°36'2 4.4
2018-Jun-14 17:59N 48°22' W 124°32'0 0.1
2018-Jun-14 17:30N 48°22' W 124°32'4 7.0
2018-Jun-14 17:00N 48°21' W 124°28'1 2.5
2018-Jun-14 16:30N 48°20' W 124°26'1 1.6
2018-Jun-14 16:00N 48°20' W 124°27'1 1.8
2018-Jun-14 15:30N 48°21' W 124°28'1 1.8
2018-Jun-14 15:00N 48°21' W 124°30'1 1.5
2018-Jun-14 14:28N 48°22' W 124°31'1 2.0
2018-Jun-14 14:00N 48°22' W 124°32'1 2.1
2018-Jun-14 13:30N 48°23' W 124°33'0 0.4
2018-Jun-14 13:00N 48°23' W 124°33'0 0.4
2018-Jun-14 12:30N 48°23' W 124°33'2 3.8
2018-Jun-14 12:00N 48°22' W 124°36'1 1.1
2018-Jun-14 11:29N 48°22' W 124°37'0 0.0
2018-Jun-14 10:59N 48°22' W 124°37'0 0.0
2018-Jun-14 10:29N 48°22' W 124°37'0 0.0
2018-Jun-14 09:59N 48°22' W 124°37'0 0.0
2018-Jun-14 09:29N 48°22' W 124°37'0 0.0
2018-Jun-14 08:59N 48°22' W 124°37'0 0.0
2018-Jun-14 08:29N 48°22' W 124°37'0 0.0
2018-Jun-14 07:59N 48°22' W 124°37'0 0.0
2018-Jun-14 07:29N 48°22' W 124°37'0 0.0
2018-Jun-14 06:59N 48°22' W 124°37'0 0.0
2018-Jun-14 06:29N 48°22' W 124°37'0 0.0
2018-Jun-14 05:59N 48°22' W 124°37'0 0.0
2018-Jun-14 05:29N 48°22' W 124°37'0 0.0
2018-Jun-14 04:59N 48°22' W 124°37'0 0.0
2018-Jun-14 04:29N 48°22' W 124°37'0 0.0
2018-Jun-14 03:59N 48°22' W 124°37'0 0.0
2018-Jun-14 03:29N 48°22' W 124°37'0 0.0
2018-Jun-14 02:59N 48°22' W 124°37'0 0.0
2018-Jun-14 02:29N 48°22' W 124°37'0 0.0
2018-Jun-14 01:59N 48°22' W 124°37'0 0.0
2018-Jun-14 01:29N 48°22' W 124°37'0 0.0
2018-Jun-14 00:59N 48°22' W 124°37'0 0.0
2018-Jun-14 00:29N 48°22' W 124°37'0 0.0
2018-Jun-13 23:59N 48°22' W 124°37'0 0.0
2018-Jun-13 23:29N 48°22' W 124°37'0 0.0
2018-Jun-13 22:59N 48°22' W 124°37'0 0.0
2018-Jun-13 22:29N 48°22' W 124°37'0 0.0
2018-Jun-13 21:59N 48°22' W 124°37'0 0.0
2018-Jun-13 21:29N 48°22' W 124°37'0 0.0
2018-Jun-13 20:56N 48°22' W 124°37'0 0.0
2018-Jun-13 20:29N 48°22' W 124°37'0 0.0
2018-Jun-13 19:59N 48°22' W 124°37'0 0.0
2018-Jun-13 19:29N 48°22' W 124°37'0 0.0
2018-Jun-13 18:59N 48°22' W 124°37'0 0.0
2018-Jun-13 18:29N 48°22' W 124°37'0 0.0
2018-Jun-13 18:01N 48°22' W 124°37'1 2.2
2018-Jun-13 17:31N 48°23' W 124°35'510.4
2018-Jun-13 17:00N 48°21' W 124°28'1 1.9
2018-Jun-13 16:30N 48°21' W 124°29'1 1.6
2018-Jun-13 15:59N 48°22' W 124°30'1 1.5
2018-Jun-13 15:30N 48°22' W 124°31'1 1.7
2018-Jun-13 15:00N 48°23' W 124°32'0 0.9
2018-Jun-13 14:30N 48°23' W 124°32'1 2.6
2018-Jun-13 14:00N 48°22' W 124°31'1 2.4
2018-Jun-13 13:30N 48°22' W 124°29'1 2.1
2018-Jun-13 13:00N 48°21' W 124°28'1 1.8
2018-Jun-13 12:30N 48°21' W 124°29'2 3.1
2018-Jun-13 12:00N 48°22' W 124°31'2 3.1
2018-Jun-13 11:30N 48°23' W 124°33'2 4.6
2018-Jun-13 11:00N 48°22' W 124°37'0 0.1
2018-Jun-13 10:29N 48°22' W 124°37'0 0.0
2018-Jun-13 09:59N 48°22' W 124°37'0 0.0
2018-Jun-13 09:29N 48°22' W 124°37'0 0.0
2018-Jun-13 08:59N 48°22' W 124°37'0 0.0
2018-Jun-13 08:29N 48°22' W 124°37'0 0.0
2018-Jun-13 07:59N 48°22' W 124°37'0 0.0
2018-Jun-13 07:29N 48°22' W 124°37'0 0.0
2018-Jun-13 06:59N 48°22' W 124°37'0 0.0
2018-Jun-13 06:29N 48°22' W 124°37'0 0.0
2018-Jun-13 05:59N 48°22' W 124°37'0 0.0
2018-Jun-13 05:29N 48°22' W 124°37'0 0.0
2018-Jun-13 04:59N 48°22' W 124°37'0 0.0
2018-Jun-13 04:29N 48°22' W 124°37'0 0.0
2018-Jun-13 03:59N 48°22' W 124°37'0 0.0
2018-Jun-13 03:29N 48°22' W 124°37'0 0.0
2018-Jun-13 02:59N 48°22' W 124°37'0 0.0
2018-Jun-13 02:29N 48°22' W 124°37'0 0.0
2018-Jun-13 01:59N 48°22' W 124°37'0 0.0
2018-Jun-13 01:29N 48°22' W 124°37'0 0.0
2018-Jun-13 00:59N 48°22' W 124°37'0 0.0
2018-Jun-13 00:29N 48°22' W 124°37'0 0.0
2018-Jun-12 23:59N 48°22' W 124°37'0 0.0
2018-Jun-12 23:29N 48°22' W 124°37'0 0.0
2018-Jun-12 22:59N 48°22' W 124°37'0 0.0
2018-Jun-12 22:29N 48°22' W 124°37'0 0.0
2018-Jun-12 21:59N 48°22' W 124°37'0 0.0
2018-Jun-12 21:29N 48°22' W 124°37'0 0.0
2018-Jun-12 20:59N 48°22' W 124°37'0 0.0
2018-Jun-12 20:29N 48°22' W 124°37'0 0.0
2018-Jun-12 19:59N 48°22' W 124°37'0 0.0
2018-Jun-12 19:29N 48°22' W 124°37'0 0.0
2018-Jun-12 18:59N 48°22' W 124°37'0 0.0
2018-Jun-12 18:29N 48°22' W 124°37'0 0.0
2018-Jun-12 17:59N 48°22' W 124°37'0 0.0
2018-Jun-12 17:29N 48°22' W 124°37'0 0.0
2018-Jun-12 17:00N 48°22' W 124°37'2 3.3
2018-Jun-12 16:30N 48°23' W 124°35'3 6.2
2018-Jun-12 16:00N 48°22' W 124°30'1 2.3
2018-Jun-12 15:30N 48°22' W 124°32'0 0.6
2018-Jun-12 15:00N 48°22' W 124°32'3 6.5
2018-Jun-12 14:30N 48°21' W 124°28'1 1.5
2018-Jun-12 14:00N 48°20' W 124°27'1 2.7
2018-Jun-12 13:30N 48°21' W 124°29'1 2.6
2018-Jun-12 13:00N 48°21' W 124°30'2 3.1
2018-Jun-12 12:30N 48°22' W 124°32'0 0.1
2018-Jun-12 12:00N 48°22' W 124°32'0 0.7
2018-Jun-12 11:30N 48°22' W 124°32'1 1.8
2018-Jun-12 11:00N 48°22' W 124°33'2 4.5
2018-Jun-12 10:30N 48°22' W 124°36'0 0.7
2018-Jun-12 10:00N 48°22' W 124°37'0 0.0
2018-Jun-12 09:30N 48°22' W 124°37'0 0.0
2018-Jun-12 09:00N 48°22' W 124°37'0 0.0
2018-Jun-12 08:30N 48°22' W 124°37'0 0.0
2018-Jun-12 08:00N 48°22' W 124°37'0 0.0
2018-Jun-12 07:30N 48°22' W 124°37'0 0.0
2018-Jun-12 07:00N 48°22' W 124°37'0 0.0
2018-Jun-12 06:30N 48°22' W 124°37'0 0.0
2018-Jun-12 06:00N 48°22' W 124°37'0 0.0
2018-Jun-12 05:30N 48°22' W 124°37'0 0.0
2018-Jun-12 05:00N 48°22' W 124°37'0 0.0
2018-Jun-12 04:30N 48°22' W 124°37'0 0.0
2018-Jun-12 04:00N 48°22' W 124°37'0 0.0
2018-Jun-12 03:30N 48°22' W 124°37'0 0.0
2018-Jun-12 03:00N 48°22' W 124°37'0 0.0
2018-Jun-12 02:30N 48°22' W 124°37'0 0.0
2018-Jun-12 02:00N 48°22' W 124°37'0 0.0
2018-Jun-12 01:30N 48°22' W 124°37'0 0.0
2018-Jun-12 01:00N 48°22' W 124°37'0 0.0
2018-Jun-12 00:30N 48°22' W 124°37'0 0.0
2018-Jun-12 00:00N 48°22' W 124°37'0 0.0
2018-Jun-11 23:30N 48°22' W 124°37'0 0.0
2018-Jun-11 23:00N 48°22' W 124°37'0 0.0
2018-Jun-11 22:30N 48°22' W 124°37'0 0.0
2018-Jun-11 22:00N 48°22' W 124°37'0 0.0
2018-Jun-11 21:30N 48°22' W 124°37'0 0.0
2018-Jun-11 21:00N 48°22' W 124°37'0 0.0
2018-Jun-11 20:30N 48°22' W 124°37'0 0.0
2018-Jun-11 20:00N 48°22' W 124°37'0 0.0
2018-Jun-11 19:30N 48°22' W 124°37'0 0.0
2018-Jun-11 19:00N 48°22' W 124°37'0 0.0
2018-Jun-11 18:30N 48°22' W 124°37'0 0.0
2018-Jun-11 18:00N 48°22' W 124°37'0 0.0
2018-Jun-11 17:30N 48°22' W 124°37'0 0.0
2018-Jun-11 17:00N 48°22' W 124°37'0 0.0
2018-Jun-11 16:30N 48°22' W 124°37'0 0.0
2018-Jun-11 16:00N 48°22' W 124°37'0 0.0
2018-Jun-11 15:30N 48°22' W 124°37'0 0.0
2018-Jun-11 15:00N 48°22' W 124°37'0 0.0
2018-Jun-11 14:30N 48°22' W 124°37'0 0.0
2018-Jun-11 14:00N 48°22' W 124°37'0 0.0
2018-Jun-11 13:30N 48°22' W 124°37'0 0.0
2018-Jun-11 13:00N 48°22' W 124°37'0 0.0
2018-Jun-11 12:30N 48°22' W 124°37'0 0.0
2018-Jun-11 12:00N 48°22' W 124°37'0 0.0
2018-Jun-11 11:30N 48°22' W 124°37'0 0.0
2018-Jun-11 11:00N 48°22' W 124°37'0 0.0
2018-Jun-11 10:30N 48°22' W 124°37'0 0.0
2018-Jun-11 10:00N 48°22' W 124°37'0 0.0
2018-Jun-11 09:30N 48°22' W 124°37'0 0.0
2018-Jun-11 09:00N 48°22' W 124°37'0 0.0
2018-Jun-11 08:30N 48°22' W 124°37'0 0.0
2018-Jun-11 07:57N 48°22' W 124°37'0 0.0
2018-Jun-11 07:30N 48°22' W 124°37'0 0.0
2018-Jun-11 07:00N 48°22' W 124°37'0 0.0
2018-Jun-11 06:30N 48°22' W 124°37'0 0.0
2018-Jun-11 06:00N 48°22' W 124°37'0 0.0
2018-Jun-11 05:30N 48°22' W 124°37'0 0.0
2018-Jun-11 05:00N 48°22' W 124°37'0 0.0
2018-Jun-11 04:30N 48°22' W 124°37'0 0.0
2018-Jun-11 04:00N 48°22' W 124°37'0 0.0
2018-Jun-11 03:30N 48°22' W 124°37'0 0.0
2018-Jun-11 03:00N 48°22' W 124°37'0 0.0
2018-Jun-11 02:30N 48°22' W 124°37'0 0.0
2018-Jun-11 01:57N 48°22' W 124°37'0 0.0
2018-Jun-11 01:30N 48°22' W 124°37'0 0.0
2018-Jun-11 01:00N 48°22' W 124°37'0 0.0
2018-Jun-11 00:30N 48°22' W 124°37'0 0.0
2018-Jun-11 00:00N 48°22' W 124°37'0 0.0
2018-Jun-10 23:30N 48°22' W 124°37'0 0.0
2018-Jun-10 23:00N 48°22' W 124°37'0 0.0
2018-Jun-10 22:30N 48°22' W 124°37'0 0.0
2018-Jun-10 22:00N 48°22' W 124°37'0 0.0
2018-Jun-10 21:30N 48°22' W 124°37'0 0.0
2018-Jun-10 21:00N 48°22' W 124°37'0 0.0
2018-Jun-10 20:30N 48°22' W 124°37'0 0.0
2018-Jun-10 20:00N 48°22' W 124°37'0 0.0
2018-Jun-10 19:30N 48°22' W 124°37'0 0.0
2018-Jun-10 19:00N 48°22' W 124°37'0 0.0
2018-Jun-10 18:30N 48°22' W 124°37'0 0.0
2018-Jun-10 18:00N 48°22' W 124°37'0 0.0
2018-Jun-10 17:30N 48°22' W 124°37'0 0.0
2018-Jun-10 17:00N 48°22' W 124°37'0 0.0
2018-Jun-10 16:30N 48°22' W 124°37'0 0.0
2018-Jun-10 16:00N 48°22' W 124°37'0 0.0
2018-Jun-10 15:30N 48°22' W 124°37'0 0.0
2018-Jun-10 15:00N 48°22' W 124°37'0 0.0
2018-Jun-10 14:00N 48°22' W 124°37'0 0.0
2018-Jun-10 13:27N 48°22' W 124°37'0 0.0
2018-Jun-10 13:00N 48°22' W 124°37'0 0.0
2018-Jun-10 12:30N 48°22' W 124°37'0 0.0
2018-Jun-10 12:00N 48°22' W 124°37'0 0.0
2018-Jun-10 11:30N 48°22' W 124°37'0 0.0
2018-Jun-10 11:00N 48°22' W 124°37'0 0.0
2018-Jun-10 10:30N 48°22' W 124°37'0 0.0
2018-Jun-10 10:00N 48°22' W 124°37'0 0.0
2018-Jun-10 09:30N 48°22' W 124°37'0 0.0
2018-Jun-10 09:00N 48°22' W 124°37'0 0.0
2018-Jun-10 08:30N 48°22' W 124°37'0 0.0
2018-Jun-10 08:00N 48°22' W 124°37'0 0.0
2018-Jun-10 07:30N 48°22' W 124°37'0 0.0
2018-Jun-10 07:00N 48°22' W 124°37'0 0.0
2018-Jun-10 06:30N 48°22' W 124°37'0 0.0
2018-Jun-10 06:00N 48°22' W 124°37'0 0.0
2018-Jun-10 05:30N 48°22' W 124°37'0 0.0
2018-Jun-10 05:00N 48°22' W 124°37'0 0.0
2018-Jun-10 04:30N 48°22' W 124°37'0 0.0
2018-Jun-10 04:00N 48°22' W 124°37'0 0.0
2018-Jun-10 03:30N 48°22' W 124°37'0 0.0
2018-Jun-10 03:00N 48°22' W 124°37'0 0.0
2018-Jun-10 02:30N 48°22' W 124°37'0 0.0
2018-Jun-10 02:00N 48°22' W 124°37'0 0.0
2018-Jun-10 01:30N 48°22' W 124°37'0 0.0
2018-Jun-10 01:00N 48°22' W 124°37'0 0.0
2018-Jun-10 00:30N 48°22' W 124°37'0 0.0
2018-Jun-10 00:00N 48°22' W 124°37'0 0.0
2018-Jun-09 23:30N 48°22' W 124°37'0 0.0
2018-Jun-09 23:00N 48°22' W 124°37'0 0.0
2018-Jun-09 22:30N 48°22' W 124°37'0 0.0
2018-Jun-09 22:00N 48°22' W 124°37'0 0.0
2018-Jun-09 21:30N 48°22' W 124°37'0 0.0
2018-Jun-09 21:00N 48°22' W 124°37'0 0.0
2018-Jun-09 20:30N 48°22' W 124°37'0 0.0
2018-Jun-09 20:00N 48°22' W 124°37'0 0.0
2018-Jun-09 19:30N 48°22' W 124°37'0 0.0
2018-Jun-09 19:00N 48°22' W 124°37'0 0.0
2018-Jun-09 18:30N 48°22' W 124°37'0 0.0
2018-Jun-09 18:00N 48°22' W 124°37'0 0.0
2018-Jun-09 17:30N 48°22' W 124°37'0 0.0
2018-Jun-09 17:00N 48°22' W 124°37'0 0.0
2018-Jun-09 16:30N 48°22' W 124°37'0 0.0
2018-Jun-09 16:00N 48°22' W 124°37'0 0.0
2018-Jun-09 15:00N 48°22' W 124°37'0 0.0
2018-Jun-09 14:30N 48°22' W 124°37'0 0.0
2018-Jun-09 14:00N 48°22' W 124°37'0 0.0
2018-Jun-09 13:30N 48°22' W 124°37'0 0.0
2018-Jun-09 13:00N 48°22' W 124°37'0 0.0
2018-Jun-09 12:30N 48°22' W 124°37'0 0.0
2018-Jun-09 12:00N 48°22' W 124°37'0 0.0
2018-Jun-09 11:30N 48°22' W 124°37'0 0.0
2018-Jun-09 11:00N 48°22' W 124°37'0 0.0
2018-Jun-09 10:30N 48°22' W 124°37'0 0.0
2018-Jun-09 10:00N 48°22' W 124°37'0 0.0
2018-Jun-09 09:30N 48°22' W 124°37'0 0.0
2018-Jun-09 09:00N 48°22' W 124°37'0 0.0
2018-Jun-09 08:30N 48°22' W 124°37'0 0.0
2018-Jun-09 08:00N 48°22' W 124°37'0 0.0
2018-Jun-09 07:30N 48°22' W 124°37'0 0.0
2018-Jun-09 07:00N 48°22' W 124°37'0 0.0
2018-Jun-09 06:30N 48°22' W 124°37'0 0.0
2018-Jun-09 06:00N 48°22' W 124°37'0 0.0
2018-Jun-09 05:30N 48°22' W 124°37'0 0.0
2018-Jun-09 05:00N 48°22' W 124°37'0 0.0
2018-Jun-09 04:30N 48°22' W 124°37'0 0.0
2018-Jun-09 04:00N 48°22' W 124°37'0 0.0
2018-Jun-09 03:30N 48°22' W 124°37'0 0.0
2018-Jun-09 03:00N 48°22' W 124°37'0 0.0
2018-Jun-09 02:30N 48°22' W 124°37'0 0.0
2018-Jun-09 02:00N 48°22' W 124°37'0 0.0
2018-Jun-09 01:30N 48°22' W 124°37'0 0.0
2018-Jun-09 01:00N 48°22' W 124°37'0 0.0
2018-Jun-09 00:30N 48°22' W 124°37'0 0.0
2018-Jun-09 00:00N 48°22' W 124°37'0 0.0
2018-Jun-08 23:30N 48°22' W 124°37'0 0.0
2018-Jun-08 23:00N 48°22' W 124°37'0 0.0
2018-Jun-08 22:30N 48°22' W 124°37'0 0.0
2018-Jun-08 22:00N 48°22' W 124°37'0 0.0
2018-Jun-08 21:30N 48°22' W 124°37'0 0.0
2018-Jun-08 20:54N 48°22' W 124°37'0 0.0
2018-Jun-08 20:30N 48°22' W 124°37'0 0.0
2018-Jun-08 20:00N 48°22' W 124°37'0 0.0
2018-Jun-08 19:30N 48°22' W 124°37'0 0.0
2018-Jun-08 19:00N 48°22' W 124°37'0 0.0
2018-Jun-08 18:30N 48°22' W 124°37'0 0.0
2018-Jun-08 18:00N 48°22' W 124°37'0 0.0
2018-Jun-08 17:30N 48°22' W 124°37'  
Track history (hours):
 
Tides and Currents Weather Stations Pressure Air Temp Water Temp Dewpoint Dewpoint Depression Visibility Wind Speed Wind Dir Waves Ship Positions

Denise Foss

Last reported at 2018-Jun-18 17:00 UTC. Time now 2018-Jun-18 17:26 UTC.
Position N 48°21' W 124°28'.

Length 36 m; draft 5.5 m.

Type: Tug. MMSI: 367732430.

Date/timePositionNaut miles runAvg speedWind from/ knotsBaromVisibWave heightAir tempDewpointWater temp
2018-Jun-18 17:00N 48°21' W 124°28'2 3.1
2018-Jun-18 16:30N 48°21' W 124°30'2 3.4
2018-Jun-18 16:00N 48°22' W 124°32'2 4.0
2018-Jun-18 15:30N 48°23' W 124°35'1 2.5
2018-Jun-18 14:58N 48°22' W 124°37'0 0.0
2018-Jun-18 14:28N 48°22' W 124°37'0 0.0
2018-Jun-18 13:58N 48°22' W 124°37'0 0.0
2018-Jun-18 13:28N 48°22' W 124°37'0 0.0
2018-Jun-18 12:58N 48°22' W 124°37'0 0.0
2018-Jun-18 12:28N 48°22' W 124°37'0 0.0
2018-Jun-18 11:58N 48°22' W 124°37'0 0.0
2018-Jun-18 11:25N 48°22' W 124°37'0 0.0
2018-Jun-18 10:58N 48°22' W 124°37'0 0.0
2018-Jun-18 10:28N 48°22' W 124°37'0 0.0
2018-Jun-18 09:58N 48°22' W 124°37'0 0.0
2018-Jun-18 09:28N 48°22' W 124°37'0 0.0
2018-Jun-18 08:58N 48°22' W 124°37'0 0.0
2018-Jun-18 08:28N 48°22' W 124°37'0 0.0
2018-Jun-18 07:58N 48°22' W 124°37'0 0.0
2018-Jun-18 07:28N 48°22' W 124°37'0 0.0
2018-Jun-18 06:58N 48°22' W 124°37'0 0.0
2018-Jun-18 06:19N 48°22' W 124°37'0 0.0
2018-Jun-18 05:58N 48°22' W 124°37'0 0.0
2018-Jun-18 05:28N 48°22' W 124°37'0 0.0
2018-Jun-18 04:58N 48°22' W 124°37'0 0.0
2018-Jun-18 04:28N 48°22' W 124°37'0 0.0
2018-Jun-18 03:58N 48°22' W 124°37'0 0.0
2018-Jun-18 03:28N 48°22' W 124°37'0 0.0
2018-Jun-18 02:58N 48°22' W 124°37'0 0.0
2018-Jun-18 02:28N 48°22' W 124°37'0 0.0
2018-Jun-18 01:58N 48°22' W 124°37'0 0.0
2018-Jun-18 01:28N 48°22' W 124°37'0 0.0
2018-Jun-18 00:58N 48°22' W 124°37'0 0.0
2018-Jun-18 00:28N 48°22' W 124°37'0 0.0
2018-Jun-17 23:58N 48°22' W 124°37'0 0.0
2018-Jun-17 23:28N 48°22' W 124°37'0 0.0
2018-Jun-17 22:58N 48°22' W 124°37'0 0.0
2018-Jun-17 22:28N 48°22' W 124°37'0 0.0
2018-Jun-17 21:58N 48°22' W 124°37'0 0.0
2018-Jun-17 21:28N 48°22' W 124°37'0 0.0
2018-Jun-17 21:01N 48°22' W 124°37'3 5.9
2018-Jun-17 20:31N 48°22' W 124°32'0 0.2
2018-Jun-17 20:01N 48°22' W 124°32'3 6.7
2018-Jun-17 19:31N 48°21' W 124°28'4 6.8
2018-Jun-17 18:59N 48°19' W 124°23'0 0.4
2018-Jun-17 18:30N 48°19' W 124°23'1 1.7
2018-Jun-17 18:00N 48°19' W 124°24'1 2.0
2018-Jun-17 17:30N 48°20' W 124°26'1 2.1
2018-Jun-17 17:00N 48°20' W 124°27'1 2.1
2018-Jun-17 16:30N 48°21' W 124°28'1 2.2
2018-Jun-17 16:00N 48°21' W 124°30'1 2.3
2018-Jun-17 15:28N 48°22' W 124°32'1 2.4
2018-Jun-17 14:59N 48°22' W 124°33'2 3.9
2018-Jun-17 14:31N 48°22' W 124°36'1 1.4
2018-Jun-17 13:59N 48°22' W 124°37'0 0.0
2018-Jun-17 13:28N 48°22' W 124°37'0 0.0
2018-Jun-17 12:59N 48°22' W 124°37'0 0.0
2018-Jun-17 12:29N 48°22' W 124°37'0 0.0
2018-Jun-17 11:59N 48°22' W 124°37'0 0.0
2018-Jun-17 11:29N 48°22' W 124°37'0 0.0
2018-Jun-17 10:59N 48°22' W 124°37'0 0.0
2018-Jun-17 10:29N 48°22' W 124°37'0 0.0
2018-Jun-17 09:59N 48°22' W 124°37'0 0.0
2018-Jun-17 09:29N 48°22' W 124°37'0 0.0
2018-Jun-17 08:59N 48°22' W 124°37'0 0.0
2018-Jun-17 08:29N 48°22' W 124°37'0 0.0
2018-Jun-17 07:59N 48°22' W 124°37'0 0.0
2018-Jun-17 07:29N 48°22' W 124°37'0 0.0
2018-Jun-17 06:59N 48°22' W 124°37'0 0.0
2018-Jun-17 06:29N 48°22' W 124°37'0 0.0
2018-Jun-17 05:59N 48°22' W 124°37'0 0.0
2018-Jun-17 05:29N 48°22' W 124°37'0 0.0
2018-Jun-17 04:59N 48°22' W 124°37'0 0.0
2018-Jun-17 04:29N 48°22' W 124°37'0 0.0
2018-Jun-17 03:59N 48°22' W 124°37'0 0.0
2018-Jun-17 03:28N 48°22' W 124°37'0 0.0
2018-Jun-17 02:59N 48°22' W 124°37'0 0.0
2018-Jun-17 02:28N 48°22' W 124°37'0 0.0
2018-Jun-17 01:58N 48°22' W 124°37'0 0.0
2018-Jun-17 01:28N 48°22' W 124°37'0 0.0
2018-Jun-17 00:59N 48°22' W 124°37'0 0.0
2018-Jun-17 00:28N 48°22' W 124°37'0 0.0
2018-Jun-16 23:58N 48°22' W 124°37'0 0.0
2018-Jun-16 23:29N 48°22' W 124°37'0 0.0
2018-Jun-16 22:58N 48°22' W 124°37'0 0.0
2018-Jun-16 22:28N 48°22' W 124°37'0 0.0
2018-Jun-16 21:58N 48°22' W 124°37'0 0.0
2018-Jun-16 21:29N 48°22' W 124°37'0 0.0
2018-Jun-16 20:59N 48°22' W 124°37'0 0.0
2018-Jun-16 20:29N 48°22' W 124°37'2 3.8
2018-Jun-16 20:00N 48°23' W 124°34'510.8
2018-Jun-16 19:30N 48°20' W 124°27'1 1.8
2018-Jun-16 19:00N 48°21' W 124°28'1 2.1
2018-Jun-16 18:30N 48°21' W 124°29'1 2.1
2018-Jun-16 18:00N 48°22' W 124°31'1 2.0
2018-Jun-16 17:30N 48°23' W 124°32'1 1.1
2018-Jun-16 17:00N 48°23' W 124°32'3 6.8
2018-Jun-16 16:30N 48°21' W 124°28'0 0.5
2018-Jun-16 16:00N 48°21' W 124°28'1 2.1
2018-Jun-16 15:30N 48°21' W 124°29'1 1.9
2018-Jun-16 14:59N 48°22' W 124°31'1 2.1
2018-Jun-16 14:29N 48°22' W 124°32'1 2.2
2018-Jun-16 14:00N 48°23' W 124°33'2 3.8
2018-Jun-16 13:30N 48°22' W 124°36'0 0.9
2018-Jun-16 13:00N 48°22' W 124°37'0 0.0
2018-Jun-16 12:30N 48°22' W 124°37'0 0.0
2018-Jun-16 12:00N 48°22' W 124°37'0 0.0
2018-Jun-16 11:30N 48°22' W 124°37'0 0.0
2018-Jun-16 11:00N 48°22' W 124°37'0 0.0
2018-Jun-16 10:30N 48°22' W 124°37'0 0.0
2018-Jun-16 10:00N 48°22' W 124°37'0 0.0
2018-Jun-16 09:30N 48°22' W 124°37'0 0.0
2018-Jun-16 09:00N 48°22' W 124°37'0 0.0
2018-Jun-16 08:30N 48°22' W 124°37'0 0.0
2018-Jun-16 08:00N 48°22' W 124°37'0 0.0
2018-Jun-16 07:30N 48°22' W 124°37'0 0.0
2018-Jun-16 07:00N 48°22' W 124°37'0 0.0
2018-Jun-16 06:30N 48°22' W 124°37'0 0.0
2018-Jun-16 06:00N 48°22' W 124°37'0 0.0
2018-Jun-16 05:30N 48°22' W 124°37'0 0.0
2018-Jun-16 05:00N 48°22' W 124°37'0 0.0
2018-Jun-16 04:30N 48°22' W 124°37'0 0.0
2018-Jun-16 04:00N 48°22' W 124°37'0 0.0
2018-Jun-16 03:30N 48°22' W 124°37'0 0.0
2018-Jun-16 03:00N 48°22' W 124°37'0 0.0
2018-Jun-16 02:30N 48°22' W 124°37'0 0.0
2018-Jun-16 02:00N 48°22' W 124°37'0 0.0
2018-Jun-16 01:30N 48°22' W 124°37'0 0.0
2018-Jun-16 01:00N 48°22' W 124°37'0 0.0
2018-Jun-16 00:30N 48°22' W 124°37'0 0.0
2018-Jun-16 00:00N 48°22' W 124°37'0 0.0
2018-Jun-15 23:30N 48°22' W 124°37'0 0.0
2018-Jun-15 23:00N 48°22' W 124°37'0 0.0
2018-Jun-15 22:30N 48°22' W 124°37'0 0.0
2018-Jun-15 22:00N 48°22' W 124°37'0 0.0
2018-Jun-15 21:30N 48°22' W 124°37'0 0.0
2018-Jun-15 21:00N 48°22' W 124°37'0 0.0
2018-Jun-15 20:30N 48°22' W 124°37'0 0.0
2018-Jun-15 20:00N 48°22' W 124°37'0 0.0
2018-Jun-15 19:31N 48°22' W 124°37'2 4.2
2018-Jun-15 19:00N 48°23' W 124°34'4 7.1
2018-Jun-15 18:30N 48°21' W 124°29'3 6.4
2018-Jun-15 17:59N 48°19' W 124°25'0 0.5
2018-Jun-15 17:30N 48°19' W 124°24'1 1.6
2018-Jun-15 17:00N 48°20' W 124°25'1 1.8
2018-Jun-15 16:31N 48°20' W 124°27'1 2.0
2018-Jun-15 16:01N 48°20' W 124°28'1 1.5
2018-Jun-15 15:31N 48°21' W 124°29'1 1.4
2018-Jun-15 14:59N 48°21' W 124°30'1 1.7
2018-Jun-15 14:29N 48°22' W 124°31'1 1.7
2018-Jun-15 13:59N 48°22' W 124°32'1 1.7
2018-Jun-15 13:30N 48°22' W 124°33'1 2.9
2018-Jun-15 13:01N 48°23' W 124°35'1 2.4
2018-Jun-15 12:28N 48°22' W 124°37'0 0.0
2018-Jun-15 11:58N 48°22' W 124°37'0 0.0
2018-Jun-15 11:29N 48°22' W 124°37'0 0.0
2018-Jun-15 10:59N 48°22' W 124°37'0 0.0
2018-Jun-15 10:28N 48°22' W 124°37'0 0.0
2018-Jun-15 09:58N 48°22' W 124°37'0 0.0
2018-Jun-15 09:28N 48°22' W 124°37'0 0.0
2018-Jun-15 08:58N 48°22' W 124°37'0 0.0
2018-Jun-15 08:28N 48°22' W 124°37'0 0.0
2018-Jun-15 07:58N 48°22' W 124°37'0 0.0
2018-Jun-15 07:28N 48°22' W 124°37'0 0.0
2018-Jun-15 06:58N 48°22' W 124°37'0 0.0
2018-Jun-15 06:25N 48°22' W 124°37'0 0.0
2018-Jun-15 05:58N 48°22' W 124°37'0 0.0
2018-Jun-15 05:28N 48°22' W 124°37'0 0.0
2018-Jun-15 04:58N 48°22' W 124°37'0 0.0
2018-Jun-15 04:28N 48°22' W 124°37'0 0.0
2018-Jun-15 03:59N 48°22' W 124°37'0 0.0
2018-Jun-15 03:28N 48°22' W 124°37'0 0.0
2018-Jun-15 02:58N 48°22' W 124°37'0 0.0
2018-Jun-15 02:28N 48°22' W 124°37'0 0.0
2018-Jun-15 01:58N 48°22' W 124°37'0 0.0
2018-Jun-15 01:28N 48°22' W 124°37'0 0.0
2018-Jun-15 00:58N 48°22' W 124°37'0 0.0
2018-Jun-15 00:28N 48°22' W 124°37'0 0.0
2018-Jun-14 23:58N 48°22' W 124°37'0 0.0
2018-Jun-14 23:28N 48°22' W 124°37'0 0.0
2018-Jun-14 22:58N 48°22' W 124°37'0 0.0
2018-Jun-14 22:28N 48°22' W 124°37'0 0.0
2018-Jun-14 21:58N 48°22' W 124°37'0 0.0
2018-Jun-14 21:28N 48°22' W 124°37'0 0.0
2018-Jun-14 20:58N 48°22' W 124°37'0 0.0
2018-Jun-14 20:28N 48°22' W 124°37'0 0.0
2018-Jun-14 19:58N 48°22' W 124°37'0 0.0
2018-Jun-14 19:28N 48°22' W 124°37'0 0.0
2018-Jun-14 18:58N 48°22' W 124°37'1 1.3
2018-Jun-14 18:30N 48°22' W 124°36'2 4.4
2018-Jun-14 17:59N 48°22' W 124°32'0 0.1
2018-Jun-14 17:30N 48°22' W 124°32'4 7.0
2018-Jun-14 17:00N 48°21' W 124°28'1 2.5
2018-Jun-14 16:30N 48°20' W 124°26'1 1.6
2018-Jun-14 16:00N 48°20' W 124°27'1 1.8
2018-Jun-14 15:30N 48°21' W 124°28'1 1.8
2018-Jun-14 15:00N 48°21' W 124°30'1 1.5
2018-Jun-14 14:28N 48°22' W 124°31'1 2.0
2018-Jun-14 14:00N 48°22' W 124°32'1 2.1
2018-Jun-14 13:30N 48°23' W 124°33'0 0.4
2018-Jun-14 13:00N 48°23' W 124°33'0 0.4
2018-Jun-14 12:30N 48°23' W 124°33'2 3.8
2018-Jun-14 12:00N 48°22' W 124°36'1 1.1
2018-Jun-14 11:29N 48°22' W 124°37'0 0.0
2018-Jun-14 10:59N 48°22' W 124°37'0 0.0
2018-Jun-14 10:29N 48°22' W 124°37'0 0.0
2018-Jun-14 09:59N 48°22' W 124°37'0 0.0
2018-Jun-14 09:29N 48°22' W 124°37'0 0.0
2018-Jun-14 08:59N 48°22' W 124°37'0 0.0
2018-Jun-14 08:29N 48°22' W 124°37'0 0.0
2018-Jun-14 07:59N 48°22' W 124°37'0 0.0
2018-Jun-14 07:29N 48°22' W 124°37'0 0.0
2018-Jun-14 06:59N 48°22' W 124°37'0 0.0
2018-Jun-14 06:29N 48°22' W 124°37'0 0.0
2018-Jun-14 05:59N 48°22' W 124°37'0 0.0
2018-Jun-14 05:29N 48°22' W 124°37'0 0.0
2018-Jun-14 04:59N 48°22' W 124°37'0 0.0
2018-Jun-14 04:29N 48°22' W 124°37'0 0.0
2018-Jun-14 03:59N 48°22' W 124°37'0 0.0
2018-Jun-14 03:29N 48°22' W 124°37'0 0.0
2018-Jun-14 02:59N 48°22' W 124°37'0 0.0
2018-Jun-14 02:29N 48°22' W 124°37'0 0.0
2018-Jun-14 01:59N 48°22' W 124°37'0 0.0
2018-Jun-14 01:29N 48°22' W 124°37'0 0.0
2018-Jun-14 00:59N 48°22' W 124°37'0 0.0
2018-Jun-14 00:29N 48°22' W 124°37'0 0.0
2018-Jun-13 23:59N 48°22' W 124°37'0 0.0
2018-Jun-13 23:29N 48°22' W 124°37'0 0.0
2018-Jun-13 22:59N 48°22' W 124°37'0 0.0
2018-Jun-13 22:29N 48°22' W 124°37'0 0.0
2018-Jun-13 21:59N 48°22' W 124°37'0 0.0
2018-Jun-13 21:29N 48°22' W 124°37'0 0.0
2018-Jun-13 20:56N 48°22' W 124°37'0 0.0
2018-Jun-13 20:29N 48°22' W 124°37'0 0.0
2018-Jun-13 19:59N 48°22' W 124°37'0 0.0
2018-Jun-13 19:29N 48°22' W 124°37'0 0.0
2018-Jun-13 18:59N 48°22' W 124°37'0 0.0
2018-Jun-13 18:29N 48°22' W 124°37'0 0.0
2018-Jun-13 18:01N 48°22' W 124°37'1 2.2
2018-Jun-13 17:31N 48°23' W 124°35'510.4
2018-Jun-13 17:00N 48°21' W 124°28'1 1.9
2018-Jun-13 16:30N 48°21' W 124°29'1 1.6
2018-Jun-13 15:59N 48°22' W 124°30'1 1.5
2018-Jun-13 15:30N 48°22' W 124°31'1 1.7
2018-Jun-13 15:00N 48°23' W 124°32'0 0.9
2018-Jun-13 14:30N 48°23' W 124°32'1 2.6
2018-Jun-13 14:00N 48°22' W 124°31'1 2.4
2018-Jun-13 13:30N 48°22' W 124°29'1 2.1
2018-Jun-13 13:00N 48°21' W 124°28'1 1.8
2018-Jun-13 12:30N 48°21' W 124°29'2 3.1
2018-Jun-13 12:00N 48°22' W 124°31'2 3.1
2018-Jun-13 11:30N 48°23' W 124°33'2 4.6
2018-Jun-13 11:00N 48°22' W 124°37'0 0.1
2018-Jun-13 10:29N 48°22' W 124°37'0 0.0
2018-Jun-13 09:59N 48°22' W 124°37'0 0.0
2018-Jun-13 09:29N 48°22' W 124°37'0 0.0
2018-Jun-13 08:59N 48°22' W 124°37'0 0.0
2018-Jun-13 08:29N 48°22' W 124°37'0 0.0
2018-Jun-13 07:59N 48°22' W 124°37'0 0.0
2018-Jun-13 07:29N 48°22' W 124°37'0 0.0
2018-Jun-13 06:59N 48°22' W 124°37'0 0.0
2018-Jun-13 06:29N 48°22' W 124°37'0 0.0
2018-Jun-13 05:59N 48°22' W 124°37'0 0.0
2018-Jun-13 05:29N 48°22' W 124°37'0 0.0
2018-Jun-13 04:59N 48°22' W 124°37'0 0.0
2018-Jun-13 04:29N 48°22' W 124°37'0 0.0
2018-Jun-13 03:59N 48°22' W 124°37'0 0.0
2018-Jun-13 03:29N 48°22' W 124°37'0 0.0
2018-Jun-13 02:59N 48°22' W 124°37'0 0.0
2018-Jun-13 02:29N 48°22' W 124°37'0 0.0
2018-Jun-13 01:59N 48°22' W 124°37'0 0.0
2018-Jun-13 01:29N 48°22' W 124°37'0 0.0
2018-Jun-13 00:59N 48°22' W 124°37'0 0.0
2018-Jun-13 00:29N 48°22' W 124°37'0 0.0
2018-Jun-12 23:59N 48°22' W 124°37'0 0.0
2018-Jun-12 23:29N 48°22' W 124°37'0 0.0
2018-Jun-12 22:59N 48°22' W 124°37'0 0.0
2018-Jun-12 22:29N 48°22' W 124°37'0 0.0
2018-Jun-12 21:59N 48°22' W 124°37'0 0.0
2018-Jun-12 21:29N 48°22' W 124°37'0 0.0
2018-Jun-12 20:59N 48°22' W 124°37'0 0.0
2018-Jun-12 20:29N 48°22' W 124°37'0 0.0
2018-Jun-12 19:59N 48°22' W 124°37'0 0.0
2018-Jun-12 19:29N 48°22' W 124°37'0 0.0
2018-Jun-12 18:59N 48°22' W 124°37'0 0.0
2018-Jun-12 18:29N 48°22' W 124°37'0 0.0
2018-Jun-12 17:59N 48°22' W 124°37'0 0.0
2018-Jun-12 17:29N 48°22' W 124°37'0 0.0
2018-Jun-12 17:00N 48°22' W 124°37'2 3.3
2018-Jun-12 16:30N 48°23' W 124°35'3 6.2
2018-Jun-12 16:00N 48°22' W 124°30'1 2.3
2018-Jun-12 15:30N 48°22' W 124°32'0 0.6
2018-Jun-12 15:00N 48°22' W 124°32'3 6.5
2018-Jun-12 14:30N 48°21' W 124°28'1 1.5
2018-Jun-12 14:00N 48°20' W 124°27'1 2.7
2018-Jun-12 13:30N 48°21' W 124°29'1 2.6
2018-Jun-12 13:00N 48°21' W 124°30'2 3.1
2018-Jun-12 12:30N 48°22' W 124°32'0 0.1
2018-Jun-12 12:00N 48°22' W 124°32'0 0.7
2018-Jun-12 11:30N 48°22' W 124°32'1 1.8
2018-Jun-12 11:00N 48°22' W 124°33'2 4.5
2018-Jun-12 10:30N 48°22' W 124°36'0 0.7
2018-Jun-12 10:00N 48°22' W 124°37'0 0.0
2018-Jun-12 09:30N 48°22' W 124°37'0 0.0
2018-Jun-12 09:00N 48°22' W 124°37'0 0.0
2018-Jun-12 08:30N 48°22' W 124°37'0 0.0
2018-Jun-12 08:00N 48°22' W 124°37'0 0.0
2018-Jun-12 07:30N 48°22' W 124°37'0 0.0
2018-Jun-12 07:00N 48°22' W 124°37'0 0.0
2018-Jun-12 06:30N 48°22' W 124°37'0 0.0
2018-Jun-12 06:00N 48°22' W 124°37'0 0.0
2018-Jun-12 05:30N 48°22' W 124°37'0 0.0
2018-Jun-12 05:00N 48°22' W 124°37'0 0.0
2018-Jun-12 04:30N 48°22' W 124°37'0 0.0
2018-Jun-12 04:00N 48°22' W 124°37'0 0.0
2018-Jun-12 03:30N 48°22' W 124°37'0 0.0
2018-Jun-12 03:00N 48°22' W 124°37'0 0.0
2018-Jun-12 02:30N 48°22' W 124°37'0 0.0
2018-Jun-12 02:00N 48°22' W 124°37'0 0.0
2018-Jun-12 01:30N 48°22' W 124°37'0 0.0
2018-Jun-12 01:00N 48°22' W 124°37'0 0.0
2018-Jun-12 00:30N 48°22' W 124°37'0 0.0
2018-Jun-12 00:00N 48°22' W 124°37'0 0.0
2018-Jun-11 23:30N 48°22' W 124°37'0 0.0
2018-Jun-11 23:00N 48°22' W 124°37'0 0.0
2018-Jun-11 22:30N 48°22' W 124°37'0 0.0
2018-Jun-11 22:00N 48°22' W 124°37'0 0.0
2018-Jun-11 21:30N 48°22' W 124°37'0 0.0
2018-Jun-11 21:00N 48°22' W 124°37'0 0.0
2018-Jun-11 20:30N 48°22' W 124°37'0 0.0
2018-Jun-11 20:00N 48°22' W 124°37'0 0.0
2018-Jun-11 19:30N 48°22' W 124°37'0 0.0
2018-Jun-11 19:00N 48°22' W 124°37'0 0.0
2018-Jun-11 18:30N 48°22' W 124°37'0 0.0
2018-Jun-11 18:00N 48°22' W 124°37'0 0.0
2018-Jun-11 17:30N 48°22' W 124°37'0 0.0
2018-Jun-11 17:00N 48°22' W 124°37'0 0.0
2018-Jun-11 16:30N 48°22' W 124°37'0 0.0
2018-Jun-11 16:00N 48°22' W 124°37'0 0.0
2018-Jun-11 15:30N 48°22' W 124°37'0 0.0
2018-Jun-11 15:00N 48°22' W 124°37'0 0.0
2018-Jun-11 14:30N 48°22' W 124°37'0 0.0
2018-Jun-11 14:00N 48°22' W 124°37'0 0.0
2018-Jun-11 13:30N 48°22' W 124°37'0 0.0
2018-Jun-11 13:00N 48°22' W 124°37'0 0.0
2018-Jun-11 12:30N 48°22' W 124°37'0 0.0
2018-Jun-11 12:00N 48°22' W 124°37'0 0.0
2018-Jun-11 11:30N 48°22' W 124°37'0 0.0
2018-Jun-11 11:00N 48°22' W 124°37'0 0.0
2018-Jun-11 10:30N 48°22' W 124°37'0 0.0
2018-Jun-11 10:00N 48°22' W 124°37'0 0.0
2018-Jun-11 09:30N 48°22' W 124°37'0 0.0
2018-Jun-11 09:00N 48°22' W 124°37'0 0.0
2018-Jun-11 08:30N 48°22' W 124°37'0 0.0
2018-Jun-11 07:57N 48°22' W 124°37'0 0.0
2018-Jun-11 07:30N 48°22' W 124°37'0 0.0
2018-Jun-11 07:00N 48°22' W 124°37'0 0.0
2018-Jun-11 06:30N 48°22' W 124°37'0 0.0
2018-Jun-11 06:00N 48°22' W 124°37'0 0.0
2018-Jun-11 05:30N 48°22' W 124°37'0 0.0
2018-Jun-11 05:00N 48°22' W 124°37'0 0.0
2018-Jun-11 04:30N 48°22' W 124°37'0 0.0
2018-Jun-11 04:00N 48°22' W 124°37'0 0.0
2018-Jun-11 03:30N 48°22' W 124°37'0 0.0
2018-Jun-11 03:00N 48°22' W 124°37'0 0.0
2018-Jun-11 02:30N 48°22' W 124°37'0 0.0
2018-Jun-11 01:57N 48°22' W 124°37'0 0.0
2018-Jun-11 01:30N 48°22' W 124°37'0 0.0
2018-Jun-11 01:00N 48°22' W 124°37'0 0.0
2018-Jun-11 00:30N 48°22' W 124°37'0 0.0
2018-Jun-11 00:00N 48°22' W 124°37'0 0.0
2018-Jun-10 23:30N 48°22' W 124°37'0 0.0
2018-Jun-10 23:00N 48°22' W 124°37'0 0.0
2018-Jun-10 22:30N 48°22' W 124°37'0 0.0
2018-Jun-10 22:00N 48°22' W 124°37'0 0.0
2018-Jun-10 21:30N 48°22' W 124°37'0 0.0
2018-Jun-10 21:00N 48°22' W 124°37'0 0.0
2018-Jun-10 20:30N 48°22' W 124°37'0 0.0
2018-Jun-10 20:00N 48°22' W 124°37'0 0.0
2018-Jun-10 19:30N 48°22' W 124°37'0 0.0
2018-Jun-10 19:00N 48°22' W 124°37'0 0.0
2018-Jun-10 18:30N 48°22' W 124°37'0 0.0
2018-Jun-10 18:00N 48°22' W 124°37'0 0.0
2018-Jun-10 17:30N 48°22' W 124°37'0 0.0
2018-Jun-10 17:00N 48°22' W 124°37'0 0.0
2018-Jun-10 16:30N 48°22' W 124°37'0 0.0
2018-Jun-10 16:00N 48°22' W 124°37'0 0.0
2018-Jun-10 15:30N 48°22' W 124°37'0 0.0
2018-Jun-10 15:00N 48°22' W 124°37'0 0.0
2018-Jun-10 14:00N 48°22' W 124°37'0 0.0
2018-Jun-10 13:27N 48°22' W 124°37'0 0.0
2018-Jun-10 13:00N 48°22' W 124°37'0 0.0
2018-Jun-10 12:30N 48°22' W 124°37'0 0.0
2018-Jun-10 12:00N 48°22' W 124°37'0 0.0
2018-Jun-10 11:30N 48°22' W 124°37'0 0.0
2018-Jun-10 11:00N 48°22' W 124°37'0 0.0
2018-Jun-10 10:30N 48°22' W 124°37'0 0.0
2018-Jun-10 10:00N 48°22' W 124°37'0 0.0
2018-Jun-10 09:30N 48°22' W 124°37'0 0.0
2018-Jun-10 09:00N 48°22' W 124°37'0 0.0
2018-Jun-10 08:30N 48°22' W 124°37'0 0.0
2018-Jun-10 08:00N 48°22' W 124°37'0 0.0
2018-Jun-10 07:30N 48°22' W 124°37'0 0.0
2018-Jun-10 07:00N 48°22' W 124°37'0 0.0
2018-Jun-10 06:30N 48°22' W 124°37'0 0.0
2018-Jun-10 06:00N 48°22' W 124°37'0 0.0
2018-Jun-10 05:30N 48°22' W 124°37'0 0.0
2018-Jun-10 05:00N 48°22' W 124°37'0 0.0
2018-Jun-10 04:30N 48°22' W 124°37'0 0.0
2018-Jun-10 04:00N 48°22' W 124°37'0 0.0
2018-Jun-10 03:30N 48°22' W 124°37'0 0.0
2018-Jun-10 03:00N 48°22' W 124°37'0 0.0
2018-Jun-10 02:30N 48°22' W 124°37'0 0.0
2018-Jun-10 02:00N 48°22' W 124°37'0 0.0
2018-Jun-10 01:30N 48°22' W 124°37'0 0.0
2018-Jun-10 01:00N 48°22' W 124°37'0 0.0
2018-Jun-10 00:30N 48°22' W 124°37'0 0.0
2018-Jun-10 00:00N 48°22' W 124°37'0 0.0
2018-Jun-09 23:30N 48°22' W 124°37'0 0.0
2018-Jun-09 23:00N 48°22' W 124°37'0 0.0
2018-Jun-09 22:30N 48°22' W 124°37'0 0.0
2018-Jun-09 22:00N 48°22' W 124°37'0 0.0
2018-Jun-09 21:30N 48°22' W 124°37'0 0.0
2018-Jun-09 21:00N 48°22' W 124°37'0 0.0
2018-Jun-09 20:30N 48°22' W 124°37'0 0.0
2018-Jun-09 20:00N 48°22' W 124°37'0 0.0
2018-Jun-09 19:30N 48°22' W 124°37'0 0.0
2018-Jun-09 19:00N 48°22' W 124°37'0 0.0
2018-Jun-09 18:30N 48°22' W 124°37'0 0.0
2018-Jun-09 18:00N 48°22' W 124°37'0 0.0
2018-Jun-09 17:30N 48°22' W 124°37'0 0.0
2018-Jun-09 17:00N 48°22' W 124°37'0 0.0
2018-Jun-09 16:30N 48°22' W 124°37'0 0.0
2018-Jun-09 16:00N 48°22' W 124°37'0 0.0
2018-Jun-09 15:00N 48°22' W 124°37'0 0.0
2018-Jun-09 14:30N 48°22' W 124°37'0 0.0
2018-Jun-09 14:00N 48°22' W 124°37'0 0.0
2018-Jun-09 13:30N 48°22' W 124°37'0 0.0
2018-Jun-09 13:00N 48°22' W 124°37'0 0.0
2018-Jun-09 12:30N 48°22' W 124°37'0 0.0
2018-Jun-09 12:00N 48°22' W 124°37'0 0.0
2018-Jun-09 11:30N 48°22' W 124°37'0 0.0
2018-Jun-09 11:00N 48°22' W 124°37'0 0.0
2018-Jun-09 10:30N 48°22' W 124°37'0 0.0
2018-Jun-09 10:00N 48°22' W 124°37'0 0.0
2018-Jun-09 09:30N 48°22' W 124°37'0 0.0
2018-Jun-09 09:00N 48°22' W 124°37'0 0.0
2018-Jun-09 08:30N 48°22' W 124°37'0 0.0
2018-Jun-09 08:00N 48°22' W 124°37'0 0.0
2018-Jun-09 07:30N 48°22' W 124°37'0 0.0
2018-Jun-09 07:00N 48°22' W 124°37'0 0.0
2018-Jun-09 06:30N 48°22' W 124°37'0 0.0
2018-Jun-09 06:00N 48°22' W 124°37'0 0.0
2018-Jun-09 05:30N 48°22' W 124°37'0 0.0
2018-Jun-09 05:00N 48°22' W 124°37'0 0.0
2018-Jun-09 04:30N 48°22' W 124°37'0 0.0
2018-Jun-09 04:00N 48°22' W 124°37'0 0.0
2018-Jun-09 03:30N 48°22' W 124°37'0 0.0
2018-Jun-09 03:00N 48°22' W 124°37'0 0.0
2018-Jun-09 02:30N 48°22' W 124°37'0 0.0
2018-Jun-09 02:00N 48°22' W 124°37'0 0.0
2018-Jun-09 01:30N 48°22' W 124°37'0 0.0
2018-Jun-09 01:00N 48°22' W 124°37'0 0.0
2018-Jun-09 00:30N 48°22' W 124°37'0 0.0
2018-Jun-09 00:00N 48°22' W 124°37'0 0.0
2018-Jun-08 23:30N 48°22' W 124°37'0 0.0
2018-Jun-08 23:00N 48°22' W 124°37'0 0.0
2018-Jun-08 22:30N 48°22' W 124°37'0 0.0
2018-Jun-08 22:00N 48°22' W 124°37'0 0.0
2018-Jun-08 21:30N 48°22' W 124°37'0 0.0
2018-Jun-08 20:54N 48°22' W 124°37'0 0.0
2018-Jun-08 20:30N 48°22' W 124°37'0 0.0
2018-Jun-08 20:00N 48°22' W 124°37'0 0.0
2018-Jun-08 19:30N 48°22' W 124°37'0 0.0
2018-Jun-08 19:00N 48°22' W 124°37'0 0.0
2018-Jun-08 18:30N 48°22' W 124°37'0 0.0
2018-Jun-08 18:00N 48°22' W 124°37'0 0.0
2018-Jun-08 17:30N 48°22' W 124°37'  

Dump ship's entire track history